Main page
METAR-TAF:

METAR-TAF

Airports :

Leuchars Station

Leuchars, Scotland

latitude: 56-23N, longitude: 002-52W, elevation: 12 m

Current weather observation

The report was made 1 hour and 7 minutes ago, at 05:50 UTC
Wind 10 kt from the West
Temperature 8°C
Humidity 76%
Pressure 995 hPa
Visibility 10 km or more
no clouds below 1500 m and no cumulonimbus

METAR: EGQL 050550Z 28010KT CAVOK 08/04 Q0995 BLU

Time: 07:57 (06:57 UTC)

Forecast

The report was made 2 hours and 50 minutes ago, at 04:07 UTC
Forecast valid from 05 at 06 UTC to 05 at 15 UTC
Wind 10 kt from the West/Northwest
Visibility 10 km or more
Few clouds at a height of 2400 ft
Probability 30% :
Temporary
from 05 at 06 UTC to 05 at 15 UTC
Visibility: 7000 m
Scattered clouds at a height of 2400 ft, Towering cumulus.
rain showers
Becoming
from 05 at 07 UTC to 05 at 10 UTC
Wind 15 kt from the Northwest with gusts up to 25 kt

TAF: EGQL 050407Z 0506/0515 29010KT 9999 FEW024 PROB30 TEMPO 0506/0515 7000 SHRA SCT024TCU BECMG 0507/0510 31015G25KT

Weather observations and forecasts of more than 4000 airports (METAR and TAF reports).

The available stations are represented by yellow and red dots on the map.

Hover mouse over dot to see the name of the station.

Then click to see weather observations and forecasts.

To change the map : click on the green buttons with a black cross to zoom in, on the green button with a dash to zoom out, or on the green arrows for adjacent maps.


METAR-TAF: